Time;durP1;ratioP1;P1;durP2;ratioP2;P2;SDS_P1;SDS_P2;PMS_P1;PMS_P2;Temp;Humidity;BMP_temperature;BMP_pressure;BME280_temperature;BME280_humidity;BME280_pressure;Samples;Min_cycle;Max_cycle;Signal;HPM_P1;HPM_P2
2023/04/11 00:02:03;;;;;;;13.23;8.07;;;;;;;5.50;79.16;93690.41;5062910;28;20020;-71
2023/04/11 00:04:29;;;;;;;12.82;8.02;;;;;;;5.48;79.24;93694.41;5061186;28;20036;-71
2023/04/11 00:06:55;;;;;;;11.38;7.38;;;;;;;5.47;79.23;93680.41;5062479;28;20381;-71
2023/04/11 00:09:21;;;;;;;13.40;8.30;;;;;;;5.42;80.03;93683.13;5062767;28;20056;-71
2023/04/11 00:11:47;;;;;;;13.02;8.30;;;;;;;5.44;79.83;93670.41;5062764;28;20095;-72
2023/04/11 00:14:14;;;;;;;15.63;8.80;;;;;;;5.49;79.64;93672.19;5062518;28;20096;-72
2023/04/11 00:16:40;;;;;;;12.82;8.18;;;;;;;5.33;80.51;93667.13;5062503;28;20052;-71
2023/04/11 00:19:06;;;;;;;11.40;7.60;;;;;;;5.41;79.87;93665.69;5062333;28;20071;-71
2023/04/11 00:21:31;;;;;;;12.63;8.32;;;;;;;5.45;80.00;93668.53;5062631;28;20095;-71
2023/04/11 00:23:57;;;;;;;11.70;7.78;;;;;;;5.36;79.94;93661.25;5062306;28;20028;-71
2023/04/11 00:26:22;;;;;;;13.77;8.55;;;;;;;5.43;79.82;93666.97;5062427;28;20020;-71
2023/04/11 00:28:48;;;;;;;12.82;7.95;;;;;;;5.48;79.44;93668.00;5062416;28;20031;-71
2023/04/11 00:31:13;;;;;;;12.55;7.57;;;;;;;5.51;79.18;93657.59;5062315;28;20021;-71
2023/04/11 00:33:39;;;;;;;13.23;8.15;;;;;;;5.48;79.60;93662.69;5062205;28;20088;-71
2023/04/11 00:36:05;;;;;;;12.82;8.05;;;;;;;5.49;79.09;93658.97;5062481;28;20024;-71
2023/04/11 00:38:31;;;;;;;13.90;8.73;;;;;;;5.51;79.03;93667.41;5062438;28;20020;-71
2023/04/11 00:40:56;;;;;;;14.27;7.95;;;;;;;5.49;79.09;93664.25;5062247;28;20025;-71
2023/04/11 00:43:22;;;;;;;15.23;9.15;;;;;;;5.51;78.80;93652.31;5062146;28;20307;-71
2023/04/11 00:45:47;;;;;;;15.65;8.40;;;;;;;5.56;78.66;93668.13;5062361;28;20021;-71
2023/04/11 00:48:13;;;;;;;12.25;8.40;;;;;;;5.55;78.71;93663.13;5066011;28;20021;-71
2023/04/11 00:50:41;;;;;;;12.68;7.88;;;;;;;5.63;78.47;93665.13;5065926;28;20048;-71
2023/04/11 00:53:10;;;;;;;12.75;7.93;;;;;;;5.66;77.87;93658.47;5066022;28;20029;-71
2023/04/11 00:55:36;;;;;;;11.57;7.45;;;;;;;5.64;78.07;93672.00;5065793;28;20023;-71
2023/04/11 00:58:02;;;;;;;12.88;7.68;;;;;;;5.57;78.05;93676.84;5065918;28;20056;-71
2023/04/11 01:00:32;;;;;;;14.68;8.07;;;;;;;5.63;78.16;93665.13;5065912;28;20276;-71
2023/04/11 01:02:58;;;;;;;12.95;8.25;;;;;;;5.65;78.18;93665.63;5065700;28;20031;-71
2023/04/11 01:05:24;;;;;;;14.00;8.07;;;;;;;5.65;78.52;93673.53;5065347;28;20056;-71
2023/04/11 01:07:51;;;;;;;15.95;8.38;;;;;;;5.62;78.56;93663.56;5065683;28;20033;-71
2023/04/11 01:10:17;;;;;;;12.77;7.68;;;;;;;5.64;78.42;93672.00;5065646;28;20092;-71
2023/04/11 01:12:44;;;;;;;12.35;7.93;;;;;;;5.66;78.44;93663.75;5065593;28;20025;-71
2023/04/11 01:15:10;;;;;;;13.80;8.20;;;;;;;5.63;78.34;93667.75;5065527;28;20017;-71
2023/04/11 01:17:36;;;;;;;14.40;8.00;;;;;;;5.60;78.63;93668.34;5065239;28;20196;-71
2023/04/11 01:20:01;;;;;;;12.05;7.03;;;;;;;5.60;78.65;93668.34;5065624;28;20324;-71
2023/04/11 01:22:29;;;;;;;12.55;8.07;;;;;;;5.56;78.60;93664.69;5065461;28;20041;-71
2023/04/11 01:24:55;;;;;;;12.82;6.95;;;;;;;5.60;78.31;93669.13;5065282;28;20063;-71
2023/04/11 01:27:20;;;;;;;11.73;7.53;;;;;;;5.57;78.76;93666.25;5065310;28;20029;-71
2023/04/11 01:29:46;;;;;;;12.55;8.15;;;;;;;5.56;78.52;93676.06;5065104;28;20433;-71
2023/04/11 01:32:11;;;;;;;12.55;8.23;;;;;;;5.58;78.64;93679.19;5065325;28;20025;-71
2023/04/11 01:34:39;;;;;;;13.02;8.18;;;;;;;5.54;79.17;93677.41;5065324;28;20013;-71
2023/04/11 01:37:05;;;;;;;14.30;8.27;;;;;;;5.56;79.23;93662.06;5065304;28;20052;-71
2023/04/11 01:39:30;;;;;;;13.18;7.85;;;;;;;5.60;78.93;93671.78;5064958;28;20020;-71
2023/04/11 01:41:57;;;;;;;15.82;9.57;;;;;;;5.58;78.89;93667.84;5064998;28;20100;-71
2023/04/11 01:44:24;;;;;;;16.58;8.23;;;;;;;5.56;78.96;93660.19;5064803;28;20062;-71
2023/04/11 01:46:50;;;;;;;14.90;8.07;;;;;;;5.56;78.65;93654.91;5064873;28;20021;-71
2023/04/11 01:49:17;;;;;;;14.82;9.07;;;;;;;5.58;79.00;93662.56;5064885;28;20025;-71
2023/04/11 01:51:43;;;;;;;12.55;7.72;;;;;;;5.52;78.81;93659.19;5064693;28;20223;-71
2023/04/11 01:54:09;;;;;;;13.90;8.82;;;;;;;5.54;79.26;93654.41;5064799;28;20028;-71
2023/04/11 01:56:35;;;;;;;17.73;10.07;;;;;;;5.57;78.80;93655.69;5064824;28;20045;-71
2023/04/11 01:59:00;;;;;;;15.50;9.48;;;;;;;5.46;79.57;93647.13;5064638;28;20063;-71
2023/04/11 02:01:26;;;;;;;14.85;8.35;;;;;;;5.51;79.64;93644.38;5064686;28;20088;-71
2023/04/11 02:03:52;;;;;;;13.50;8.48;;;;;;;5.45;79.41;93647.41;5064574;28;20110;-71
2023/04/11 02:06:17;;;;;;;14.68;8.68;;;;;;;5.49;79.08;93646.53;5064339;28;20032;-71
2023/04/11 02:08:43;;;;;;;15.40;8.60;;;;;;;5.53;79.34;93654.69;5064680;28;20028;-71
2023/04/11 02:11:08;;;;;;;14.40;9.02;;;;;;;5.61;79.43;93646.88;5064531;28;20025;-71
2023/04/11 02:13:34;;;;;;;14.75;9.07;;;;;;;5.53;78.42;93630.88;5064526;28;20025;-71
2023/04/11 02:16:10;;;;;;;14.20;8.75;;;;;;;5.61;78.38;93657.47;5064140;28;20017;-71
2023/04/11 02:18:36;;;;;;;16.40;9.45;;;;;;;5.62;78.38;93647.69;5064419;28;20035;-71
2023/04/11 02:21:02;;;;;;;15.52;9.40;;;;;;;5.48;78.30;93646.84;5064486;28;20215;-72
2023/04/11 02:23:27;;;;;;;15.50;9.02;;;;;;;5.46;79.05;93648.97;5064171;28;20021;-72
2023/04/11 02:25:53;;;;;;;16.88;9.52;;;;;;;5.47;78.54;93647.91;5063950;28;20341;-71
2023/04/11 02:28:18;;;;;;;15.38;9.07;;;;;;;5.46;78.86;93654.28;5064208;28;20028;-72
2023/04/11 02:30:44;;;;;;;15.20;8.98;;;;;;;5.37;79.19;93651.47;5064223;28;20040;-70
2023/04/11 02:33:09;;;;;;;17.90;10.15;;;;;;;5.34;79.28;93647.53;5064180;28;20025;-70
2023/04/11 02:35:35;;;;;;;15.45;9.57;;;;;;;5.37;79.06;93652.28;5064046;28;20338;-70
2023/04/11 02:38:00;;;;;;;15.00;9.55;;;;;;;5.33;79.01;93651.25;5063896;28;20028;-70
2023/04/11 02:40:26;;;;;;;18.48;10.85;;;;;;;5.28;79.37;93646.03;5063924;28;20335;-70
2023/04/11 02:42:51;;;;;;;16.48;9.60;;;;;;;5.26;79.43;93647.41;5063735;28;20048;-70
2023/04/11 02:45:17;;;;;;;16.48;9.90;;;;;;;5.24;79.54;93637.09;5063828;28;20100;-69
2023/04/11 02:47:42;;;;;;;18.90;11.30;;;;;;;5.19;79.79;93651.19;5063757;28;20029;-70
2023/04/11 02:50:08;;;;;;;18.10;11.07;;;;;;;5.12;79.65;93644.66;5063611;28;20094;-70
2023/04/11 02:52:33;;;;;;;19.20;10.95;;;;;;;5.12;79.55;93644.66;5063651;28;20282;-71
2023/04/11 02:54:59;;;;;;;17.83;9.55;;;;;;;5.07;79.72;93648.16;5063752;28;20040;-71
2023/04/11 02:57:24;;;;;;;20.35;11.50;;;;;;;5.07;79.84;93640.22;5063456;28;20250;-72
2023/04/11 02:59:50;;;;;;;19.48;11.43;;;;;;;5.01;79.60;93644.78;5063627;28;20035;-71
2023/04/11 03:02:15;;;;;;;22.45;11.07;;;;;;;5.11;79.37;93621.94;5063412;28;20048;-71
2023/04/11 03:04:41;;;;;;;18.02;10.77;;;;;;;5.02;79.25;93633.13;5063266;28;20293;-71
2023/04/11 03:07:06;;;;;;;17.20;11.05;;;;;;;5.06;79.62;93629.94;5063440;28;20028;-71
2023/04/11 03:09:31;;;;;;;18.80;11.15;;;;;;;5.05;79.45;93623.88;5063012;28;20070;-71
2023/04/11 03:11:57;;;;;;;17.83;10.52;;;;;;;5.12;79.04;93623.53;5063356;28;20039;-71
2023/04/11 03:14:22;;;;;;;18.40;11.20;;;;;;;5.12;79.06;93632.22;5062959;28;20188;-71
2023/04/11 03:16:47;;;;;;;20.08;10.82;;;;;;;5.14;78.91;93626.66;5063247;28;20419;-71
2023/04/11 03:19:13;;;;;;;18.08;10.80;;;;;;;5.13;78.37;93636.47;5063264;28;20021;-71
2023/04/11 03:21:38;;;;;;;19.25;11.27;;;;;;;5.18;78.12;93625.81;5063136;28;20024;-71
2023/04/11 03:24:04;;;;;;;17.77;9.80;;;;;;;5.09;78.11;93624.06;5063219;28;20335;-71
2023/04/11 03:26:31;;;;;;;20.30;10.60;;;;;;;5.07;78.17;93631.50;5062997;28;20324;-70
2023/04/11 03:28:57;;;;;;;20.33;11.65;;;;;;;5.08;78.35;93625.16;5062950;28;20083;-70
2023/04/11 03:31:22;;;;;;;18.13;10.70;;;;;;;5.15;78.65;93633.50;5063029;28;20025;-70
2023/04/11 03:33:48;;;;;;;19.40;11.18;;;;;;;5.18;78.23;93631.09;5062982;28;20021;-71
2023/04/11 03:36:13;;;;;;;22.75;11.80;;;;;;;5.23;77.75;93624.94;5062947;28;20028;-71
2023/04/11 03:38:39;;;;;;;18.48;10.70;;;;;;;5.28;78.20;93639.97;5061728;28;20025;-72
2023/04/11 03:41:04;;;;;;;19.17;11.68;;;;;;;5.23;77.29;93630.22;5062960;28;20025;-71
2023/04/11 03:43:30;;;;;;;17.88;10.27;;;;;;;5.22;77.00;93618.88;5062905;28;20075;-71
2023/04/11 03:45:56;;;;;;;20.67;12.00;;;;;;;5.16;77.20;93622.66;5062817;28;20386;-70
2023/04/11 03:48:25;;;;;;;19.17;11.70;;;;;;;5.20;77.46;93636.09;5062915;28;20104;-71
2023/04/11 03:50:51;;;;;;;21.23;13.10;;;;;;;5.19;77.58;93634.50;5062804;28;20087;-70
2023/04/11 03:53:16;;;;;;;18.60;11.85;;;;;;;5.16;77.52;93629.81;5062683;28;20017;-71
2023/04/11 03:55:42;;;;;;;23.92;12.70;;;;;;;5.09;77.70;93629.34;5062694;28;20021;-71
2023/04/11 03:58:07;;;;;;;17.60;11.73;;;;;;;5.07;78.26;93637.59;5062556;28;20032;-71
2023/04/11 04:00:33;;;;;;;19.85;11.13;;;;;;;5.09;78.09;93635.44;5062767;28;20024;-71
2023/04/11 04:02:58;;;;;;;25.65;11.57;;;;;;;4.95;78.26;93631.94;5062572;28;20021;-71
2023/04/11 04:05:24;;;;;;;22.13;11.65;;;;;;;4.93;78.57;93634.84;5062553;28;20025;-71
2023/04/11 04:07:50;;;;;;;22.90;13.02;;;;;;;4.92;78.53;93635.91;5062433;28;20215;-70
2023/04/11 04:10:15;;;;;;;23.08;12.63;;;;;;;4.95;79.00;93643.28;5061392;28;20027;-70
2023/04/11 04:12:40;;;;;;;20.77;11.77;;;;;;;4.95;78.70;93643.28;5061045;28;20250;-70
2023/04/11 04:15:06;;;;;;;21.58;12.77;;;;;;;4.92;78.76;93637.75;5061909;28;20373;-70
2023/04/11 04:17:32;;;;;;;20.50;12.40;;;;;;;4.92;78.65;93633.25;5062624;28;20021;-70
2023/04/11 04:19:57;;;;;;;20.75;13.00;;;;;;;4.96;78.51;93641.41;5062415;28;20016;-71
2023/04/11 04:22:25;;;;;;;19.08;12.38;;;;;;;4.97;78.34;93625.28;5065248;28;20027;-70
2023/04/11 04:24:50;;;;;;;25.02;14.07;;;;;;;4.90;78.33;93640.69;5065838;28;20119;-71
2023/04/11 04:27:17;;;;;;;21.27;12.23;;;;;;;4.92;78.19;93630.63;5064669;28;20037;-71
2023/04/11 04:29:46;;;;;;;22.02;11.93;;;;;;;4.91;78.47;93629.06;5064562;28;20035;-70
2023/04/11 04:32:19;;;;;;;20.75;12.93;;;;;;;4.87;78.57;93628.06;5064433;28;20105;-70
2023/04/11 04:34:48;;;;;;;24.30;14.05;;;;;;;4.87;78.64;93641.25;5064452;28;20059;-69
2023/04/11 04:37:23;;;;;;;23.25;12.70;;;;;;;4.74;79.20;93626.09;5064397;28;20029;-70
2023/04/11 04:39:55;;;;;;;25.73;14.13;;;;;;;4.82;79.23;93626.28;5064777;28;20329;-70
2023/04/11 04:42:25;;;;;;;27.33;14.18;;;;;;;4.89;78.93;93633.84;5066192;28;20075;-70
2023/04/11 04:44:52;;;;;;;21.88;13.02;;;;;;;4.83;78.56;93627.81;5066048;28;20074;-70
2023/04/11 04:47:18;;;;;;;23.55;13.45;;;;;;;4.89;78.91;93635.69;5065988;28;20074;-71
2023/04/11 04:49:45;;;;;;;27.10;14.40;;;;;;;4.85;78.88;93630.19;5065979;28;20086;-71
2023/04/11 04:52:14;;;;;;;23.02;13.05;;;;;;;4.82;78.07;93622.81;5065990;28;20319;-69
2023/04/11 04:54:40;;;;;;;26.88;14.40;;;;;;;4.90;78.71;93622.19;5065869;28;20032;-70
2023/04/11 04:57:07;;;;;;;24.20;13.23;;;;;;;4.98;78.02;93628.72;5065733;28;20068;-70
2023/04/11 04:59:32;;;;;;;24.65;13.85;;;;;;;4.94;77.43;93633.75;5065864;28;20341;-70
2023/04/11 05:01:58;;;;;;;22.48;13.32;;;;;;;4.91;77.43;93626.41;5064563;28;20049;-70
2023/04/11 05:04:23;;;;;;;25.42;14.30;;;;;;;4.92;77.44;93629.84;5065582;28;20376;-71
2023/04/11 05:06:49;;;;;;;23.27;13.32;;;;;;;4.79;77.90;93626.03;5065594;28;20036;-70
2023/04/11 05:09:16;;;;;;;22.08;12.57;;;;;;;4.75;77.17;93622.41;5065632;28;20215;-70
2023/04/11 05:11:41;;;;;;;24.40;13.32;;;;;;;4.77;78.24;93628.97;5065394;28;20026;-70
2023/04/11 05:14:07;;;;;;;21.20;12.45;;;;;;;4.79;77.78;93618.91;5065566;28;20039;-69
2023/04/11 05:16:32;;;;;;;19.98;11.98;;;;;;;4.88;77.33;93613.00;5065528;28;20021;-69
2023/04/11 05:18:58;;;;;;;25.38;13.40;;;;;;;4.86;77.13;93629.09;5065349;28;20080;-69
2023/04/11 05:21:23;;;;;;;23.10;13.00;;;;;;;4.84;77.45;93620.69;5065397;28;20223;-68
2023/04/11 05:23:49;;;;;;;23.65;12.40;;;;;;;4.89;77.81;93614.56;5065129;28;20227;-70
2023/04/11 05:26:14;;;;;;;22.02;12.60;;;;;;;4.86;77.21;93618.53;5065328;28;20327;-68
2023/04/11 05:28:40;;;;;;;22.15;13.85;;;;;;;4.95;77.03;93616.88;5065249;28;20037;-69
2023/04/11 05:31:07;;;;;;;24.25;13.70;;;;;;;4.89;77.25;93628.56;5065016;28;20099;-69
2023/04/11 05:33:33;;;;;;;28.27;13.95;;;;;;;4.87;77.29;93624.63;5064553;28;20115;-69
2023/04/11 05:35:59;;;;;;;27.15;12.35;;;;;;;4.89;77.11;93612.72;5065092;28;20043;-69
2023/04/11 05:38:24;;;;;;;20.77;12.20;;;;;;;4.93;77.15;93612.94;5065103;28;20033;-69
2023/04/11 05:40:50;;;;;;;20.83;12.35;;;;;;;4.90;77.42;93606.34;5064936;28;20366;-69
2023/04/11 05:43:15;;;;;;;21.63;12.45;;;;;;;4.96;77.14;93615.00;5064905;28;20052;-69
2023/04/11 05:45:41;;;;;;;22.27;12.63;;;;;;;5.00;76.90;93613.38;5064703;28;20074;-69
2023/04/11 05:48:07;;;;;;;21.45;12.45;;;;;;;5.01;76.96;93618.38;5064935;28;20231;-68
2023/04/11 05:50:33;;;;;;;24.02;12.45;;;;;;;5.10;76.92;93601.88;5064943;28;20032;-69
2023/04/11 05:52:59;;;;;;;20.02;12.60;;;;;;;5.20;76.66;93597.25;5064800;28;20021;-68
2023/04/11 05:55:24;;;;;;;23.52;12.80;;;;;;;5.29;76.62;93602.69;5064657;28;20215;-71
2023/04/11 05:57:50;;;;;;;18.73;10.88;;;;;;;5.30;76.06;93604.25;5064316;28;20112;-69
2023/04/11 06:00:16;;;;;;;19.35;11.32;;;;;;;5.34;76.15;93612.41;5064805;28;20357;-69
2023/04/11 06:02:42;;;;;;;19.08;10.38;;;;;;;5.36;76.22;93597.81;5064507;28;20055;-69
2023/04/11 06:05:11;;;;;;;21.38;12.25;;;;;;;5.43;76.40;93600.09;5064406;28;20029;-71
2023/04/11 06:07:38;;;;;;;21.05;12.10;;;;;;;5.53;75.62;93602.59;5064542;28;20227;-71
2023/04/11 06:10:05;;;;;;;14.60;9.68;;;;;;;5.59;75.06;93579.50;5064241;28;20020;-70
2023/04/11 06:12:31;;;;;;;18.17;10.88;;;;;;;5.72;75.01;93589.38;5064831;28;20017;-70
2023/04/11 06:14:57;;;;;;;17.60;10.43;;;;;;;5.71;74.11;93606.28;5063195;28;20036;-70
2023/04/11 06:17:23;;;;;;;16.05;10.65;;;;;;;5.73;74.32;93584.84;5064233;28;20020;-71
2023/04/11 06:19:48;;;;;;;20.23;11.18;;;;;;;5.78;74.09;93597.97;5064391;28;20047;-70
2023/04/11 06:22:14;;;;;;;20.85;11.77;;;;;;;5.82;74.24;93594.50;5064135;28;20047;-70
2023/04/11 06:24:39;;;;;;;17.30;10.35;;;;;;;5.82;73.32;93588.41;5063986;28;20025;-70
2023/04/11 06:27:08;;;;;;;15.15;10.18;;;;;;;5.87;73.42;93574.31;5064268;28;20080;-75
2023/04/11 06:29:34;;;;;;;19.60;11.52;;;;;;;5.83;74.57;93600.56;5064337;28;20156;-75
2023/04/11 06:32:00;;;;;;;18.23;9.20;;;;;;;5.98;73.67;93586.31;5063898;28;20033;-75
2023/04/11 06:34:25;;;;;;;16.58;9.32;;;;;;;5.93;73.83;93589.03;5063984;28;20028;-75
2023/04/11 06:36:50;;;;;;;17.85;10.70;;;;;;;5.98;73.41;93575.75;5063969;28;20020;-77
2023/04/11 06:39:16;;;;;;;15.93;9.88;;;;;;;5.97;73.76;93582.91;5063671;28;20044;-81
2023/04/11 06:41:42;;;;;;;15.57;9.80;;;;;;;6.05;73.77;93578.03;5063898;28;20021;-82
2023/04/11 06:44:07;;;;;;;19.15;10.65;;;;;;;6.19;72.99;93581.47;5061520;28;20013;-82
2023/04/11 06:46:33;;;;;;;16.92;10.18;;;;;;;6.16;73.44;93572.25;5063555;28;20092;-78
2023/04/11 06:48:58;;;;;;;18.58;10.60;;;;;;;6.29;73.82;93569.91;5063355;28;20071;-77
2023/04/11 06:51:24;;;;;;;17.85;10.38;;;;;;;6.32;72.35;93564.03;5062560;28;20028;-78
2023/04/11 06:53:50;;;;;;;15.13;9.32;;;;;;;6.21;72.08;93574.81;5063404;28;20017;-77
2023/04/11 06:56:15;;;;;;;25.40;9.60;;;;;;;6.17;72.58;93573.81;5062130;28;20075;-76
2023/04/11 06:58:41;;;;;;;15.73;9.52;;;;;;;6.26;73.43;93571.28;5063450;28;20092;-76
2023/04/11 07:01:07;;;;;;;15.68;8.88;;;;;;;6.31;72.67;93559.81;5061554;28;20058;-77
2023/04/11 07:03:32;;;;;;;18.75;10.95;;;;;;;6.26;72.48;93570.50;5061811;28;20359;-77
2023/04/11 07:05:57;;;;;;;20.10;8.73;;;;;;;6.36;72.71;93576.38;5060355;28;20021;-77
2023/04/11 07:08:23;;;;;;;12.93;8.45;;;;;;;6.41;71.58;93580.78;5061310;28;20028;-77
2023/04/11 07:10:48;;;;;;;16.60;10.32;;;;;;;6.53;71.92;93578.44;5061480;28;20083;-77
2023/04/11 07:13:14;;;;;;;17.77;9.27;;;;;;;6.48;71.46;93583.06;5061520;28;20016;-77
2023/04/11 07:15:39;;;;;;;16.02;9.98;;;;;;;6.52;70.72;93581.41;5062426;28;20320;-77
2023/04/11 07:18:05;;;;;;;14.57;9.18;;;;;;;6.57;70.67;93576.81;5063146;28;20315;-77
2023/04/11 07:20:31;;;;;;;16.55;9.63;;;;;;;6.64;71.74;93579.06;5061789;28;20025;-77
2023/04/11 07:22:57;;;;;;;12.32;8.35;;;;;;;6.76;71.17;93578.56;5061760;28;20021;-77
2023/04/11 07:25:29;;;;;;;16.48;8.07;;;;;;;6.71;70.64;93576.00;5061721;28;20036;-77
2023/04/11 07:27:55;;;;;;;15.00;8.95;;;;;;;6.69;71.13;93572.88;5062765;28;20100;-77
2023/04/11 07:30:20;;;;;;;14.80;8.93;;;;;;;6.81;70.86;93565.97;5062950;28;20025;-77
2023/04/11 07:32:46;;;;;;;17.73;8.65;;;;;;;6.93;70.08;93575.31;5063231;28;20028;-77
2023/04/11 07:35:11;;;;;;;14.98;8.88;;;;;;;6.95;68.76;93558.03;5062744;28;20076;-77
2023/04/11 07:37:37;;;;;;;11.38;7.18;;;;;;;6.89;68.83;93553.13;5062901;28;20096;-77
2023/04/11 07:40:09;;;;;;;14.88;8.80;;;;;;;6.85;69.58;93544.22;5062938;28;20307;-77
2023/04/11 07:42:35;;;;;;;13.70;8.35;;;;;;;6.88;69.45;93543.59;5062789;28;20032;-76
2023/04/11 07:45:00;;;;;;;13.65;7.40;;;;;;;6.95;68.71;93552.72;5062789;28;20033;-77
2023/04/11 07:47:25;;;;;;;12.65;7.03;;;;;;;7.00;68.45;93542.03;5061412;28;20064;-77
2023/04/11 07:49:51;;;;;;;16.67;8.73;;;;;;;7.10;68.66;93546.31;5062543;28;20031;-75
2023/04/11 07:52:17;;;;;;;12.80;7.20;;;;;;;7.09;67.29;93552.69;5061167;28;20218;-76
2023/04/11 07:54:42;;;;;;;12.07;6.95;;;;;;;7.10;67.20;93540.22;5061212;28;20024;-76
2023/04/11 07:57:08;;;;;;;11.85;7.38;;;;;;;7.18;68.31;93548.25;5062426;28;20044;-76
2023/04/11 07:59:33;;;;;;;12.52;6.57;;;;;;;7.37;67.46;93534.84;5062755;28;20074;-76
2023/04/11 08:02:00;;;;;;;12.43;7.35;;;;;;;7.44;65.42;93545.03;5062388;28;20208;-76
2023/04/11 08:04:29;;;;;;;10.98;6.85;;;;;;;7.43;65.88;93535.53;5062652;28;20051;-76
2023/04/11 08:06:56;;;;;;;12.13;6.95;;;;;;;7.55;66.29;93534.97;5062520;28;20200;-76
2023/04/11 08:09:22;;;;;;;14.35;7.43;;;;;;;7.63;64.53;93534.25;5062569;28;20025;-76
2023/04/11 08:11:47;;;;;;;12.35;7.30;;;;;;;7.74;64.93;93532.16;5062478;28;20016;-76
2023/04/11 08:14:12;;;;;;;10.18;6.03;;;;;;;7.80;65.29;93529.06;5062333;28;20310;-76
2023/04/11 08:16:38;;;;;;;12.32;6.63;;;;;;;7.84;64.02;93531.91;5062335;28;20324;-76
2023/04/11 08:19:03;;;;;;;13.88;7.15;;;;;;;7.82;63.50;93518.94;5061356;28;20029;-76
2023/04/11 08:21:30;;;;;;;13.07;7.47;;;;;;;7.82;64.41;93510.19;5062502;28;20204;-76
2023/04/11 08:23:55;;;;;;;11.43;6.43;;;;;;;7.80;64.47;93526.41;5062293;28;20084;-76
2023/04/11 08:26:21;;;;;;;13.95;7.07;;;;;;;7.93;63.86;93516.78;5062225;28;20441;-76
2023/04/11 08:28:47;;;;;;;12.00;6.55;;;;;;;8.05;62.78;93508.28;5062224;28;20100;-76
2023/04/11 08:31:12;;;;;;;11.00;6.80;;;;;;;8.09;62.11;93509.22;5062374;28;20883;-76
2023/04/11 08:33:38;;;;;;;10.15;7.20;;;;;;;8.16;61.93;93506.94;5061023;28;20115;-76
2023/04/11 08:36:04;;;;;;;10.25;6.40;;;;;;;8.12;61.81;93502.50;5061129;28;20032;-77
2023/04/11 08:38:30;;;;;;;13.57;7.65;;;;;;;8.19;62.04;93510.84;5062018;28;20093;-77
2023/04/11 08:40:56;;;;;;;13.38;6.70;;;;;;;8.26;62.05;93507.72;5062140;28;20172;-76
2023/04/11 08:43:22;;;;;;;12.40;7.05;;;;;;;8.33;61.62;93500.13;5061929;28;20029;-77
2023/04/11 08:45:48;;;;;;;13.55;7.65;;;;;;;8.39;60.62;93485.63;5061835;28;20214;-76
2023/04/11 08:48:13;;;;;;;12.43;7.60;;;;;;;8.41;60.03;93481.59;5062109;28;20032;-76
2023/04/11 08:50:41;;;;;;;17.48;7.03;;;;;;;8.56;60.56;93483.03;5062012;28;20205;-76
2023/04/11 08:53:07;;;;;;;13.15;6.68;;;;;;;8.64;60.13;93487.56;5062200;28;20083;-76
2023/04/11 08:55:32;;;;;;;10.10;6.25;;;;;;;8.67;60.06;93483.53;5062147;28;20247;-78
2023/04/11 08:57:58;;;;;;;13.13;7.03;;;;;;;8.74;60.25;93483.06;5062018;28;20048;-78
2023/04/11 09:00:25;;;;;;;11.13;7.10;;;;;;;8.78;60.14;93484.78;5062128;28;20075;-76
2023/04/11 09:02:54;;;;;;;16.33;7.53;;;;;;;8.89;59.71;93493.22;5061950;28;20036;-77
2023/04/11 09:05:39;;;;;;;15.15;7.70;;;;;;;9.03;60.21;93472.59;5061885;28;20096;-78
2023/04/11 09:08:13;;;;;;;12.32;6.78;;;;;;;9.07;58.69;93474.66;5064209;28;20062;-78
2023/04/11 09:10:40;;;;;;;10.35;6.63;;;;;;;9.21;58.50;93472.63;5065271;28;20092;-78
2023/04/11 09:13:26;;;;;;;10.98;5.88;;;;;;;9.33;56.14;93469.34;5065521;28;20017;-78
2023/04/11 09:16:12;;;;;;;17.85;7.88;;;;;;;9.33;57.51;93456.03;5065485;28;20040;-78
2023/04/11 09:18:38;;;;;;;11.15;6.22;;;;;;;9.21;56.61;93454.00;5065112;28;20084;-78
2023/04/11 09:21:06;;;;;;;11.82;7.18;;;;;;;9.16;57.05;93467.44;5065351;28;20037;-78
2023/04/11 09:23:33;;;;;;;13.70;7.30;;;;;;;9.21;58.36;93448.69;5065451;28;20116;-78
2023/04/11 09:25:58;;;;;;;11.23;6.78;;;;;;;9.29;57.62;93450.56;5065232;28;20188;-78
2023/04/11 09:28:24;;;;;;;16.02;7.57;;;;;;;9.50;59.18;93455.22;5065006;28;20063;-78
2023/04/11 09:30:51;;;;;;;15.73;7.05;;;;;;;9.69;57.67;93438.91;5065112;28;20099;-79
2023/04/11 09:33:30;;;;;;;10.40;6.53;;;;;;;9.65;55.49;93441.44;5065035;28;20024;-78
2023/04/11 09:35:56;;;;;;;9.48;6.00;;;;;;;9.67;56.56;93439.25;5064831;28;20980;-79
2023/04/11 09:38:32;;;;;;;9.43;6.30;;;;;;;9.83;55.27;93431.50;5065117;28;20020;-79
2023/04/11 09:41:01;;;;;;;10.85;6.45;;;;;;;9.91;56.14;93420.06;5064980;28;20020;-80
2023/04/11 09:43:27;;;;;;;10.23;6.82;;;;;;;10.03;54.46;93425.50;5064989;28;20024;-77
2023/04/11 09:46:07;;;;;;;10.50;6.45;;;;;;;9.95;54.76;93441.50;5063622;28;20036;-76
2023/04/11 09:48:35;;;;;;;13.23;6.95;;;;;;;9.88;53.87;93422.59;5065165;28;20045;-76
2023/04/11 09:51:03;;;;;;;10.85;6.15;;;;;;;9.87;54.22;93405.03;5065114;28;20051;-77
2023/04/11 09:53:30;;;;;;;11.75;6.15;;;;;;;9.86;55.03;93406.16;5064831;28;20021;-75
2023/04/11 09:55:55;;;;;;;10.80;6.40;;;;;;;9.91;52.44;93416.63;5064421;28;20088;-77
2023/04/11 09:58:23;;;;;;;12.23;6.95;;;;;;;9.92;53.66;93396.88;5064532;28;20060;-75
2023/04/11 10:00:49;;;;;;;13.10;7.18;;;;;;;9.96;54.01;93413.78;5064676;28;20066;-76
2023/04/11 10:03:15;;;;;;;13.25;7.18;;;;;;;9.91;53.43;93395.31;5064662;28;20246;-76
2023/04/11 10:05:41;;;;;;;11.85;7.03;;;;;;;9.97;53.63;93380.72;5064516;28;20223;-76
2023/04/11 10:08:16;;;;;;;9.55;6.15;;;;;;;9.97;53.06;93384.19;5064369;28;20044;-76
2023/04/11 10:10:42;;;;;;;13.02;7.85;;;;;;;10.01;53.77;93378.97;5064560;28;20025;-75
2023/04/11 10:13:36;;;;;;;12.73;7.80;;;;;;;10.03;53.61;93385.56;5064394;28;20025;-76
2023/04/11 10:16:09;;;;;;;10.55;7.15;;;;;;;10.09;53.73;93375.50;5064667;28;20272;-76
2023/04/11 10:18:57;;;;;;;10.60;6.60;;;;;;;10.36;53.31;93376.97;5064533;28;20025;-80
2023/04/11 10:21:29;;;;;;;10.40;7.13;;;;;;;10.38;51.78;93387.28;5063849;28;20387;-80
2023/04/11 10:24:06;;;;;;;10.98;6.78;;;;;;;10.24;51.00;93369.63;5064339;28;20025;-78
2023/04/11 10:26:47;;;;;;;12.55;6.82;;;;;;;10.38;52.20;93376.63;5064327;28;20037;-77
2023/04/11 10:32:18;;;;;;;11.45;6.85;;;;;;;10.48;49.97;93365.56;5064056;28;20029;-77
2023/04/11 10:34:49;;;;;;;13.95;6.78;;;;;;;10.52;50.50;93350.53;5064068;28;20238;-77
2023/04/11 10:37:16;;;;;;;11.37;6.87;;;;;;;10.60;51.13;93347.03;5063924;28;20028;-78
2023/04/11 10:39:47;;;;;;;10.75;6.65;;;;;;;10.77;49.24;93345.31;5063712;28;20021;-77
2023/04/11 10:42:34;;;;;;;9.27;6.35;;;;;;;10.91;49.41;93340.50;5063840;28;20371;-78
2023/04/11 10:45:31;;;;;;;10.82;6.55;;;;;;;10.99;48.11;93336.97;5063346;28;20021;-78
2023/04/11 10:48:02;;;;;;;11.32;6.07;;;;;;;11.02;49.35;93338.97;5063633;28;20028;-77
2023/04/11 10:50:33;;;;;;;11.38;6.57;;;;;;;11.15;48.94;93331.00;5063543;28;20262;-80
2023/04/11 10:53:06;;;;;;;10.80;6.55;;;;;;;11.30;47.11;93334.97;5063572;28;20128;-80
2023/04/11 10:55:45;;;;;;;;;;;;;;;11.27;46.56;93328.38;5064091;28;20067;-79
2023/04/11 10:58:15;;;;;;;9.77;5.97;;;;;;;11.18;46.14;93333.81;5061998;28;19916;-78
2023/04/11 11:00:50;;;;;;;19.15;9.02;;;;;;;11.17;46.29;93332.25;5063223;28;20028;-79
2023/04/11 11:03:24;;;;;;;20.33;10.52;;;;;;;11.26;47.19;93321.50;5063584;28;20036;-77
2023/04/11 11:06:06;;;;;;;17.65;10.02;;;;;;;11.42;44.76;93317.09;5063351;28;20287;-78
2023/04/11 11:08:40;;;;;;;51.92;24.05;;;;;;;11.33;44.75;93319.06;5062282;28;20029;-79
2023/04/11 11:11:10;;;;;;;18.38;10.07;;;;;;;11.39;47.75;93312.41;5062113;28;20102;-78
2023/04/11 11:13:41;;;;;;;54.15;21.35;;;;;;;11.72;46.10;93306.19;5063116;28;20021;-78
2023/04/11 11:16:08;;;;;;;13.48;7.85;;;;;;;11.62;46.03;93290.63;5062077;28;20020;-77
2023/04/11 11:18:35;;;;;;;14.50;8.23;;;;;;;11.48;46.97;93298.97;5063229;28;20025;-78
2023/04/11 11:21:03;;;;;;;12.43;7.30;;;;;;;11.44;46.41;93314.09;5062227;28;20031;-77
2023/04/11 11:23:28;;;;;;;13.02;6.93;;;;;;;11.33;45.69;93291.59;5062971;28;20350;-77
2023/04/11 11:25:56;;;;;;;12.55;6.93;;;;;;;11.12;46.67;93295.13;5062970;28;20025;-78
2023/04/11 11:28:27;;;;;;;17.50;9.23;;;;;;;10.97;48.13;93306.41;5063082;28;20088;-77
2023/04/11 11:30:55;;;;;;;12.80;7.03;;;;;;;10.88;47.58;93297.72;5062573;28;20028;-77
2023/04/11 11:33:23;;;;;;;12.45;7.20;;;;;;;10.92;48.04;93295.94;5062906;28;20021;-77